Terminal Aerodrome Forecast
Issued by NWS Louisville, KY

Home | Current Version | Previous Version | Text Only | Print | Product List | Glossary On
Versions: 1 2 3 4 5 6 7 8 9 10 11 12 13 14 15 16 17
090
FTUS43 KLMK 251120
TAFSDF
TAF
KSDF 251120Z 2512/2618 28014G20KT P6SM SCT025 OVC035
      TEMPO 2514/2518 BKN025
     FM260100 28008KT P6SM SCT035
     FM260900 VRB04KT P6SM FEW250=

USA.gov is the U.S. government's official web portal to all federal, state and local government web resources and services.